UAL44 KEWR-TXKF
Flight info
| Callsign | UAL44 |
|---|---|
| Flight time | 1h 40m |
| Altitude | 37000 |
| Route | ELVAE DCT NECCK DCT DIXIE Y481 KINGG/M076F370 DCT KINER L461 BOVIC MOMOM1 |
| Aircraft | A320/M-VGDW/C |
Departure
| Time | 2026-05-03 21:13 |
|---|---|
| Airport | Newark Liberty International Airport (KEWR) |
Arrival
| Time | 2026-05-03 22:53 |
|---|---|
| Airport | L.F. Wade International Airport (TXKF) |
| Time | Latitude | Longitude | Altitude | Speed | Heading |
|---|---|---|---|---|---|
| 2026-05-03 20:47 | 40.69627 | -74.17231 | 25 ft | 0 kts | 243° |
| 2026-05-03 21:05 | 40.69628 | -74.17228 | 40 ft | 2 kts | 243° |
| 2026-05-03 21:05 | 40.69637 | -74.17205 | 23 ft | 4 kts | 238° |
| 2026-05-03 21:05 | 40.69651 | -74.17181 | 24 ft | 3 kts | 243° |
| 2026-05-03 21:05 | 40.69657 | -74.17150 | 24 ft | 4 kts | 293° |
| 2026-05-03 21:06 | 40.69642 | -74.17130 | 24 ft | 3 kts | 336° |
| 2026-05-03 21:06 | 40.69622 | -74.17119 | 23 ft | 0 kts | 339° |
| 2026-05-03 21:09 | 40.69623 | -74.17119 | 21 ft | 0 kts | 339° |
| 2026-05-03 21:09 | 40.69632 | -74.17124 | 23 ft | 2 kts | 339° |
| 2026-05-03 21:09 | 40.69653 | -74.17135 | 21 ft | 5 kts | 335° |
| 2026-05-03 21:10 | 40.69715 | -74.17184 | 21 ft | 16 kts | 324° |
| 2026-05-03 21:10 | 40.69815 | -74.17298 | 24 ft | 19 kts | 303° |
| 2026-05-03 21:10 | 40.69895 | -74.17389 | 23 ft | 12 kts | 6° |
| 2026-05-03 21:10 | 40.70022 | -74.17367 | 23 ft | 23 kts | 21° |
| 2026-05-03 21:11 | 40.70033 | -74.17205 | 24 ft | 29 kts | 95° |
| 2026-05-03 21:11 | 40.70011 | -74.16847 | 17 ft | 48 kts | 94° |
| 2026-05-03 21:11 | 40.69986 | -74.16541 | 16 ft | 17 kts | 94° |
| 2026-05-03 21:11 | 40.69975 | -74.16431 | 13 ft | 17 kts | 118° |
| 2026-05-03 21:12 | 40.69897 | -74.16450 | 15 ft | 12 kts | 198° |
| 2026-05-03 21:12 | 40.69880 | -74.16459 | 15 ft | 0 kts | 204° |
| 2026-05-03 21:12 | 40.69855 | -74.16474 | 16 ft | 22 kts | 205° |
| 2026-05-03 21:12 | 40.69500 | -74.16706 | 24 ft | 88 kts | 205° |
| 2026-05-03 21:13 | 40.68781 | -74.17157 | 26 ft | 139 kts | 205° |
| 2026-05-03 21:13 | 40.67789 | -74.17769 | 135 ft | 165 kts | 211° |
| 2026-05-03 21:13 | 40.66739 | -74.18428 | 546 ft | 175 kts | 211° |
| 2026-05-03 21:13 | 40.65582 | -74.19114 | 850 ft | 190 kts | 211° |
| 2026-05-03 21:14 | 40.64321 | -74.19837 | 1334 ft | 206 kts | 211° |
| 2026-05-03 21:14 | 40.62923 | -74.20626 | 1691 ft | 230 kts | 208° |
| 2026-05-03 21:14 | 40.61377 | -74.21481 | 2167 ft | 251 kts | 208° |
| 2026-05-03 21:14 | 40.59721 | -74.22378 | 2734 ft | 269 kts | 207° |
| 2026-05-03 21:15 | 40.57955 | -74.23312 | 3326 ft | 269 kts | 207° |
| 2026-05-03 21:15 | 40.56205 | -74.24197 | 3868 ft | 276 kts | 206° |
| 2026-05-03 21:15 | 40.54380 | -74.25108 | 4507 ft | 279 kts | 208° |
| 2026-05-03 21:15 | 40.52537 | -74.25852 | 5419 ft | 281 kts | 191° |
| 2026-05-03 21:16 | 40.50555 | -74.25604 | 5869 ft | 294 kts | 164° |
| 2026-05-03 21:16 | 40.48700 | -74.24458 | 5996 ft | 295 kts | 158° |
| 2026-05-03 21:16 | 40.46808 | -74.23414 | 6011 ft | 293 kts | 163° |
| 2026-05-03 21:16 | 40.44891 | -74.22517 | 6017 ft | 292 kts | 165° |
| 2026-05-03 21:17 | 40.42985 | -74.21666 | 6062 ft | 294 kts | 165° |
| 2026-05-03 21:17 | 40.41672 | -74.21075 | 6540 ft | 295 kts | 165° |
| 2026-05-03 21:17 | 40.39089 | -74.19876 | 7672 ft | 299 kts | 163° |
| 2026-05-03 21:17 | 40.37124 | -74.18938 | 8427 ft | 304 kts | 163° |
| 2026-05-03 21:18 | 40.35127 | -74.17968 | 9193 ft | 308 kts | 162° |
| 2026-05-03 21:18 | 40.33107 | -74.16978 | 9931 ft | 312 kts | 163° |
| 2026-05-03 21:18 | 40.30972 | -74.16228 | 10295 ft | 326 kts | 175° |
| 2026-05-03 21:18 | 40.28655 | -74.16031 | 10465 ft | 343 kts | 186° |
| 2026-05-03 21:19 | 40.26232 | -74.16110 | 10970 ft | 351 kts | 186° |
| 2026-05-03 21:19 | 40.23775 | -74.16174 | 11609 ft | 355 kts | 186° |
| 2026-05-03 21:19 | 40.21293 | -74.16227 | 12275 ft | 358 kts | 186° |
| 2026-05-03 21:19 | 40.18786 | -74.16275 | 12937 ft | 361 kts | 186° |
| 2026-05-03 21:20 | 40.16258 | -74.16260 | 13596 ft | 367 kts | 179° |
| 2026-05-03 21:20 | 40.13740 | -74.15529 | 14177 ft | 378 kts | 162° |
| 2026-05-03 21:20 | 40.11437 | -74.13868 | 14719 ft | 388 kts | 144° |
| 2026-05-03 21:20 | 40.09539 | -74.11326 | 15242 ft | 395 kts | 125° |
| 2026-05-03 21:21 | 40.08284 | -74.08139 | 15759 ft | 398 kts | 106° |
| 2026-05-03 21:21 | 40.07554 | -74.04636 | 16305 ft | 401 kts | 102° |
| 2026-05-03 21:21 | 40.06846 | -74.01088 | 16826 ft | 405 kts | 102° |
| 2026-05-03 21:21 | 40.06131 | -73.97516 | 17351 ft | 410 kts | 102° |
| 2026-05-03 21:22 | 40.05399 | -73.93884 | 17862 ft | 415 kts | 102° |
| 2026-05-03 21:22 | 40.04658 | -73.90232 | 18372 ft | 419 kts | 102° |
| 2026-05-03 21:22 | 40.03909 | -73.86545 | 18853 ft | 423 kts | 103° |
| 2026-05-03 21:22 | 40.03151 | -73.82819 | 19357 ft | 426 kts | 103° |
| 2026-05-03 21:23 | 40.02385 | -73.79058 | 19859 ft | 429 kts | 103° |
| 2026-05-03 21:23 | 40.01614 | -73.75282 | 20369 ft | 433 kts | 103° |
| 2026-05-03 21:23 | 40.00837 | -73.71485 | 20859 ft | 436 kts | 103° |
| 2026-05-03 21:23 | 40.00046 | -73.67628 | 21342 ft | 440 kts | 103° |
| 2026-05-03 21:24 | 39.99252 | -73.63759 | 21814 ft | 443 kts | 103° |
| 2026-05-03 21:24 | 39.98459 | -73.59915 | 22267 ft | 447 kts | 103° |
| 2026-05-03 21:24 | 39.97636 | -73.55930 | 22734 ft | 450 kts | 103° |
| 2026-05-03 21:24 | 39.96831 | -73.52031 | 23192 ft | 454 kts | 103° |
| 2026-05-03 21:25 | 39.96006 | -73.48040 | 23624 ft | 457 kts | 103° |
| 2026-05-03 21:25 | 39.95175 | -73.44016 | 24005 ft | 460 kts | 103° |
| 2026-05-03 21:25 | 39.94339 | -73.39985 | 24392 ft | 462 kts | 104° |
| 2026-05-03 21:25 | 39.93494 | -73.35934 | 24773 ft | 464 kts | 104° |
| 2026-05-03 21:26 | 39.92647 | -73.31883 | 25141 ft | 466 kts | 104° |
| 2026-05-03 21:26 | 39.91789 | -73.27791 | 25534 ft | 469 kts | 104° |
| 2026-05-03 21:26 | 39.90929 | -73.23675 | 25902 ft | 471 kts | 104° |
| 2026-05-03 21:26 | 39.90076 | -73.19601 | 26256 ft | 473 kts | 105° |
| 2026-05-03 21:27 | 39.89198 | -73.15417 | 26613 ft | 475 kts | 105° |
| 2026-05-03 21:27 | 39.88322 | -73.11261 | 26891 ft | 478 kts | 105° |
| 2026-05-03 21:27 | 39.87445 | -73.07119 | 27193 ft | 481 kts | 105° |
| 2026-05-03 21:27 | 39.86564 | -73.02958 | 27515 ft | 483 kts | 105° |
| 2026-05-03 21:28 | 39.85663 | -72.98718 | 27855 ft | 486 kts | 106° |
| 2026-05-03 21:28 | 39.84804 | -72.94678 | 28178 ft | 488 kts | 106° |
| 2026-05-03 21:28 | 39.83851 | -72.90191 | 28493 ft | 491 kts | 106° |
| 2026-05-03 21:28 | 39.82938 | -72.85903 | 28801 ft | 493 kts | 106° |
| 2026-05-03 21:29 | 39.82015 | -72.81669 | 29099 ft | 496 kts | 108° |
| 2026-05-03 21:29 | 39.80988 | -72.77452 | 29414 ft | 497 kts | 110° |
| 2026-05-03 21:29 | 39.79834 | -72.73142 | 29740 ft | 499 kts | 111° |
| 2026-05-03 21:29 | 39.78646 | -72.68950 | 30063 ft | 501 kts | 112° |
| 2026-05-03 21:30 | 39.77426 | -72.64715 | 30431 ft | 500 kts | 112° |
| 2026-05-03 21:30 | 39.76214 | -72.60479 | 30779 ft | 500 kts | 112° |
| 2026-05-03 21:30 | 39.75023 | -72.56225 | 31081 ft | 502 kts | 112° |
| 2026-05-03 21:30 | 39.73851 | -72.51946 | 31390 ft | 503 kts | 112° |
| 2026-05-03 21:31 | 39.72690 | -72.47657 | 31723 ft | 503 kts | 112° |
| 2026-05-03 21:31 | 39.71534 | -72.43374 | 32058 ft | 504 kts | 112° |
| 2026-05-03 21:31 | 39.70371 | -72.39083 | 32397 ft | 504 kts | 112° |
| 2026-05-03 21:31 | 39.69200 | -72.34790 | 32742 ft | 504 kts | 112° |
| 2026-05-03 21:32 | 39.68022 | -72.30507 | 33092 ft | 504 kts | 112° |
| 2026-05-03 21:32 | 39.66842 | -72.26233 | 33434 ft | 504 kts | 113° |
| 2026-05-03 21:32 | 39.65499 | -72.22046 | 33776 ft | 500 kts | 122° |
| 2026-05-03 21:32 | 39.63770 | -72.18229 | 34087 ft | 493 kts | 130° |
| 2026-05-03 21:33 | 39.61663 | -72.14763 | 34358 ft | 487 kts | 139° |
| 2026-05-03 21:33 | 39.59351 | -72.11555 | 34611 ft | 486 kts | 140° |
| 2026-05-03 21:33 | 39.57042 | -72.08352 | 34861 ft | 486 kts | 140° |
| 2026-05-03 21:33 | 39.54736 | -72.05140 | 35109 ft | 486 kts | 140° |
| 2026-05-03 21:34 | 39.52435 | -72.01923 | 35353 ft | 487 kts | 139° |
| 2026-05-03 21:34 | 39.50163 | -71.98744 | 35592 ft | 487 kts | 140° |
| 2026-05-03 21:34 | 39.47831 | -71.95487 | 35799 ft | 487 kts | 140° |
| 2026-05-03 21:34 | 39.45536 | -71.92291 | 35938 ft | 489 kts | 140° |
| 2026-05-03 21:35 | 39.40897 | -71.85853 | 36167 ft | 494 kts | 140° |
| 2026-05-03 21:35 | 39.38548 | -71.82602 | 36284 ft | 497 kts | 140° |
| 2026-05-03 21:35 | 39.36178 | -71.79326 | 36397 ft | 499 kts | 140° |
| 2026-05-03 21:36 | 39.33805 | -71.76052 | 36540 ft | 501 kts | 140° |
| 2026-05-03 21:36 | 39.31418 | -71.72760 | 36652 ft | 502 kts | 140° |
| 2026-05-03 21:36 | 39.29028 | -71.69466 | 36775 ft | 504 kts | 140° |
| 2026-05-03 21:36 | 39.26632 | -71.66166 | 36936 ft | 504 kts | 140° |
| 2026-05-03 21:37 | 39.21807 | -71.59534 | 36998 ft | 511 kts | 140° |
| 2026-05-03 21:37 | 39.16836 | -71.53037 | 36988 ft | 512 kts | 144° |
| 2026-05-03 21:38 | 39.11526 | -71.46920 | 36998 ft | 513 kts | 147° |
| 2026-05-03 21:38 | 39.06112 | -71.40912 | 37004 ft | 517 kts | 147° |
| 2026-05-03 21:39 | 39.00714 | -71.34754 | 36999 ft | 520 kts | 146° |
| 2026-05-03 21:39 | 38.95347 | -71.28503 | 37003 ft | 520 kts | 145° |
| 2026-05-03 21:40 | 38.89976 | -71.22259 | 37002 ft | 521 kts | 146° |
| 2026-05-03 21:40 | 38.85486 | -71.17103 | 37002 ft | 520 kts | 146° |
| 2026-05-03 21:41 | 38.79197 | -71.09904 | 37008 ft | 521 kts | 146° |
| 2026-05-03 21:41 | 38.73799 | -71.03726 | 37015 ft | 521 kts | 146° |
| 2026-05-03 21:42 | 38.69294 | -70.98577 | 37025 ft | 521 kts | 146° |
| 2026-05-03 21:42 | 38.63932 | -70.92456 | 36989 ft | 522 kts | 147° |
| 2026-05-03 21:43 | 38.58506 | -70.86289 | 36996 ft | 522 kts | 147° |
| 2026-05-03 21:43 | 38.53073 | -70.80119 | 37021 ft | 522 kts | 147° |
| 2026-05-03 21:44 | 38.47642 | -70.73974 | 37036 ft | 521 kts | 147° |
| 2026-05-03 21:44 | 38.42212 | -70.67837 | 37038 ft | 521 kts | 147° |
| 2026-05-03 21:45 | 38.36822 | -70.61751 | 37017 ft | 521 kts | 147° |
| 2026-05-03 21:45 | 38.31394 | -70.55632 | 37025 ft | 521 kts | 147° |
| 2026-05-03 21:46 | 38.25964 | -70.49535 | 37025 ft | 520 kts | 148° |
| 2026-05-03 21:46 | 38.20521 | -70.43441 | 37035 ft | 519 kts | 148° |
| 2026-05-03 21:47 | 38.15101 | -70.37385 | 37063 ft | 519 kts | 148° |
| 2026-05-03 21:47 | 38.10045 | -70.30757 | 36989 ft | 527 kts | 142° |
| 2026-05-03 21:48 | 38.05050 | -70.23943 | 37006 ft | 527 kts | 142° |
| 2026-05-03 21:48 | 38.00046 | -70.17132 | 36999 ft | 528 kts | 143° |
| 2026-05-03 21:49 | 37.95085 | -70.10383 | 37026 ft | 528 kts | 143° |
| 2026-05-03 21:49 | 37.90063 | -70.03585 | 37032 ft | 528 kts | 143° |
| 2026-05-03 21:50 | 37.85055 | -69.96804 | 37036 ft | 528 kts | 143° |
| 2026-05-03 21:50 | 37.80068 | -69.90048 | 37004 ft | 528 kts | 143° |
| 2026-05-03 21:51 | 37.75050 | -69.83291 | 36996 ft | 527 kts | 144° |
| 2026-05-03 21:51 | 37.70029 | -69.76557 | 37030 ft | 526 kts | 144° |
| 2026-05-03 21:52 | 37.65014 | -69.69832 | 37040 ft | 526 kts | 144° |
| 2026-05-03 21:52 | 37.60002 | -69.63111 | 37040 ft | 526 kts | 144° |
| 2026-05-03 21:53 | 37.54988 | -69.56407 | 37042 ft | 525 kts | 144° |
| 2026-05-03 21:53 | 37.49973 | -69.49726 | 37004 ft | 525 kts | 145° |
| 2026-05-03 21:54 | 37.44939 | -69.43022 | 37028 ft | 526 kts | 145° |
| 2026-05-03 21:54 | 37.39909 | -69.36346 | 37038 ft | 526 kts | 145° |
| 2026-05-03 21:55 | 37.34866 | -69.29675 | 37050 ft | 527 kts | 145° |
| 2026-05-03 21:55 | 37.29860 | -69.23037 | 37037 ft | 527 kts | 145° |
| 2026-05-03 21:56 | 37.24811 | -69.16353 | 37019 ft | 527 kts | 146° |
| 2026-05-03 21:56 | 37.19752 | -69.09703 | 37001 ft | 526 kts | 146° |
| 2026-05-03 21:57 | 37.14691 | -69.03074 | 37025 ft | 527 kts | 146° |
| 2026-05-03 21:57 | 37.09628 | -68.96438 | 37034 ft | 527 kts | 146° |
| 2026-05-03 21:58 | 37.04557 | -68.89792 | 37036 ft | 527 kts | 146° |
| 2026-05-03 21:58 | 36.99492 | -68.83164 | 37001 ft | 526 kts | 147° |
| 2026-05-03 21:59 | 36.94425 | -68.76546 | 37027 ft | 526 kts | 147° |
| 2026-05-03 21:59 | 36.89352 | -68.69955 | 37007 ft | 527 kts | 148° |
| 2026-05-03 22:00 | 36.84254 | -68.63352 | 37023 ft | 528 kts | 148° |
| 2026-05-03 22:00 | 36.79188 | -68.56797 | 37029 ft | 529 kts | 148° |
| 2026-05-03 22:01 | 36.74079 | -68.50189 | 36996 ft | 529 kts | 148° |
| 2026-05-03 22:01 | 36.68968 | -68.43600 | 37017 ft | 529 kts | 148° |
| 2026-05-03 22:02 | 36.63844 | -68.37010 | 37027 ft | 529 kts | 148° |
| 2026-05-03 22:02 | 36.58728 | -68.30433 | 36992 ft | 529 kts | 149° |
| 2026-05-03 22:03 | 36.56052 | -68.27387 | 37007 ft | 512 kts | 157° |
| 2026-05-03 22:03 | 36.53260 | -68.24647 | 37013 ft | 511 kts | 157° |
| 2026-05-03 22:03 | 36.47668 | -68.19202 | 37002 ft | 511 kts | 158° |
| 2026-05-03 22:04 | 36.42110 | -68.13797 | 37011 ft | 511 kts | 158° |
| 2026-05-03 22:04 | 36.36507 | -68.08342 | 37036 ft | 511 kts | 158° |
| 2026-05-03 22:05 | 36.30908 | -68.02893 | 37032 ft | 511 kts | 158° |
| 2026-05-03 22:05 | 36.25313 | -67.97465 | 37049 ft | 511 kts | 158° |
| 2026-05-03 22:06 | 36.19709 | -67.92038 | 37046 ft | 511 kts | 158° |
| 2026-05-03 22:06 | 36.14103 | -67.86619 | 37046 ft | 511 kts | 158° |
| 2026-05-03 22:07 | 36.08525 | -67.81240 | 37053 ft | 511 kts | 158° |
| 2026-05-03 22:07 | 36.02884 | -67.75804 | 37015 ft | 510 kts | 159° |
| 2026-05-03 22:08 | 35.97377 | -67.70515 | 37036 ft | 510 kts | 159° |
| 2026-05-03 22:08 | 35.91759 | -67.65140 | 37046 ft | 510 kts | 159° |
| 2026-05-03 22:09 | 35.86143 | -67.59765 | 37051 ft | 511 kts | 159° |
| 2026-05-03 22:10 | 35.77724 | -67.51716 | 36958 ft | 510 kts | 159° |
| 2026-05-03 22:10 | 35.72123 | -67.46382 | 37039 ft | 509 kts | 159° |
| 2026-05-03 22:11 | 35.66535 | -67.41081 | 37051 ft | 509 kts | 159° |
| 2026-05-03 22:11 | 35.60932 | -67.35761 | 37056 ft | 510 kts | 159° |
| 2026-05-03 22:12 | 35.55314 | -67.30430 | 37059 ft | 510 kts | 159° |
| 2026-05-03 22:12 | 35.49709 | -67.25119 | 37055 ft | 509 kts | 159° |
| 2026-05-03 22:13 | 35.44092 | -67.19811 | 37013 ft | 507 kts | 159° |
| 2026-05-03 22:13 | 35.38501 | -67.14543 | 37036 ft | 507 kts | 159° |
| 2026-05-03 22:14 | 35.32912 | -67.09277 | 37054 ft | 507 kts | 159° |
| 2026-05-03 22:14 | 35.27312 | -67.04018 | 37060 ft | 507 kts | 159° |
| 2026-05-03 22:15 | 35.21741 | -66.98804 | 37061 ft | 507 kts | 159° |
| 2026-05-03 22:15 | 35.16146 | -66.93567 | 37035 ft | 506 kts | 159° |
| 2026-05-03 22:16 | 35.10576 | -66.88352 | 36998 ft | 503 kts | 159° |
| 2026-05-03 22:16 | 35.05020 | -66.83170 | 37036 ft | 502 kts | 159° |
| 2026-05-03 22:17 | 34.99468 | -66.78009 | 37043 ft | 502 kts | 159° |
| 2026-05-03 22:17 | 34.93908 | -66.72848 | 37041 ft | 502 kts | 159° |
| 2026-05-03 22:18 | 34.88373 | -66.67705 | 37039 ft | 501 kts | 159° |
| 2026-05-03 22:18 | 34.82775 | -66.62824 | 37071 ft | 493 kts | 162° |
| 2026-05-03 22:19 | 34.77044 | -66.58319 | 37065 ft | 489 kts | 164° |
| 2026-05-03 22:19 | 34.71280 | -66.53863 | 37053 ft | 490 kts | 163° |
| 2026-05-03 22:20 | 34.65549 | -66.49314 | 37058 ft | 492 kts | 162° |
| 2026-05-03 22:20 | 34.59880 | -66.44745 | 37050 ft | 491 kts | 162° |
| 2026-05-03 22:21 | 34.54194 | -66.40171 | 37046 ft | 490 kts | 162° |
| 2026-05-03 22:21 | 34.48509 | -66.35638 | 37043 ft | 489 kts | 162° |
| 2026-05-03 22:22 | 34.42812 | -66.31126 | 37046 ft | 489 kts | 163° |
| 2026-05-03 22:22 | 34.37117 | -66.26614 | 37051 ft | 489 kts | 162° |
| 2026-05-03 22:23 | 34.31443 | -66.22119 | 37034 ft | 491 kts | 162° |
| 2026-05-03 22:23 | 34.25744 | -66.17596 | 37038 ft | 482 kts | 162° |
| 2026-05-03 22:23 | 34.22998 | -66.15393 | 37047 ft | 468 kts | 162° |
| 2026-05-03 22:24 | 34.20295 | -66.13236 | 37048 ft | 463 kts | 163° |
| 2026-05-03 22:24 | 34.14916 | -66.09012 | 37046 ft | 460 kts | 163° |
| 2026-05-03 22:25 | 34.09547 | -66.04819 | 37048 ft | 460 kts | 163° |
| 2026-05-03 22:25 | 34.04178 | -66.00608 | 37047 ft | 460 kts | 163° |
| 2026-05-03 22:26 | 33.98805 | -65.96389 | 37049 ft | 462 kts | 163° |
| 2026-05-03 22:26 | 33.93454 | -65.92182 | 37029 ft | 462 kts | 162° |
| 2026-05-03 22:27 | 33.88068 | -65.87968 | 36633 ft | 464 kts | 162° |
| 2026-05-03 22:27 | 33.85321 | -65.85830 | 35292 ft | 473 kts | 162° |
| 2026-05-03 22:27 | 33.82575 | -65.83685 | 34648 ft | 464 kts | 161° |
| 2026-05-03 22:27 | 33.79927 | -65.81583 | 34231 ft | 450 kts | 161° |
| 2026-05-03 22:28 | 33.77347 | -65.79536 | 33680 ft | 438 kts | 161° |
| 2026-05-03 22:28 | 33.74849 | -65.77560 | 33227 ft | 423 kts | 161° |
| 2026-05-03 22:28 | 33.72421 | -65.75653 | 32724 ft | 412 kts | 161° |
| 2026-05-03 22:28 | 33.70031 | -65.73798 | 32086 ft | 406 kts | 161° |
| 2026-05-03 22:29 | 33.67669 | -65.71979 | 31489 ft | 400 kts | 161° |
| 2026-05-03 22:29 | 33.65346 | -65.70190 | 30928 ft | 394 kts | 161° |
| 2026-05-03 22:29 | 33.63057 | -65.68422 | 30384 ft | 388 kts | 161° |
| 2026-05-03 22:29 | 33.60836 | -65.66704 | 29807 ft | 382 kts | 161° |
| 2026-05-03 22:30 | 33.58591 | -65.64964 | 29145 ft | 377 kts | 161° |
| 2026-05-03 22:30 | 33.56432 | -65.63281 | 28869 ft | 362 kts | 161° |
| 2026-05-03 22:30 | 33.54348 | -65.61663 | 28777 ft | 365 kts | 161° |
| 2026-05-03 22:30 | 33.52197 | -65.60017 | 28655 ft | 368 kts | 160° |
| 2026-05-03 22:31 | 33.50033 | -65.58362 | 28549 ft | 370 kts | 160° |
| 2026-05-03 22:31 | 33.47861 | -65.56691 | 28202 ft | 369 kts | 160° |
| 2026-05-03 22:31 | 33.45714 | -65.55029 | 27828 ft | 366 kts | 160° |
| 2026-05-03 22:31 | 33.43583 | -65.53377 | 27457 ft | 364 kts | 160° |
| 2026-05-03 22:32 | 33.41459 | -65.51728 | 27094 ft | 362 kts | 160° |
| 2026-05-03 22:32 | 33.39353 | -65.50092 | 26714 ft | 359 kts | 160° |
| 2026-05-03 22:32 | 33.37282 | -65.48488 | 26344 ft | 357 kts | 160° |
| 2026-05-03 22:32 | 33.35197 | -65.46879 | 25968 ft | 355 kts | 160° |
| 2026-05-03 22:33 | 33.33124 | -65.45283 | 25589 ft | 354 kts | 160° |
| 2026-05-03 22:33 | 33.31082 | -65.43713 | 25219 ft | 352 kts | 160° |
| 2026-05-03 22:33 | 33.28995 | -65.42113 | 24822 ft | 352 kts | 159° |
| 2026-05-03 22:33 | 33.27631 | -65.41067 | 24559 ft | 351 kts | 159° |
| 2026-05-03 22:34 | 33.24903 | -65.38971 | 24037 ft | 351 kts | 159° |
| 2026-05-03 22:34 | 33.22853 | -65.37395 | 23629 ft | 351 kts | 159° |
| 2026-05-03 22:34 | 33.20791 | -65.35814 | 23173 ft | 351 kts | 159° |
| 2026-05-03 22:34 | 33.19434 | -65.34773 | 22867 ft | 349 kts | 159° |
| 2026-05-03 22:35 | 33.16716 | -65.32683 | 22357 ft | 347 kts | 159° |
| 2026-05-03 22:35 | 33.15375 | -65.31652 | 22086 ft | 346 kts | 159° |
| 2026-05-03 22:35 | 33.13349 | -65.30098 | 21680 ft | 345 kts | 159° |
| 2026-05-03 22:35 | 33.11336 | -65.28558 | 21262 ft | 344 kts | 159° |
| 2026-05-03 22:36 | 33.09318 | -65.27013 | 20867 ft | 343 kts | 159° |
| 2026-05-03 22:36 | 33.07307 | -65.25468 | 20456 ft | 345 kts | 157° |
| 2026-05-03 22:36 | 33.05413 | -65.23645 | 20048 ft | 357 kts | 147° |
| 2026-05-03 22:36 | 33.03692 | -65.21479 | 19655 ft | 360 kts | 144° |
| 2026-05-03 22:37 | 33.01989 | -65.19295 | 19262 ft | 360 kts | 144° |
| 2026-05-03 22:37 | 33.00283 | -65.17114 | 18865 ft | 360 kts | 144° |
| 2026-05-03 22:37 | 32.98572 | -65.14932 | 18458 ft | 360 kts | 144° |
| 2026-05-03 22:37 | 32.96856 | -65.12749 | 18025 ft | 360 kts | 144° |
| 2026-05-03 22:38 | 32.95158 | -65.10585 | 17598 ft | 359 kts | 144° |
| 2026-05-03 22:38 | 32.93444 | -65.08401 | 17197 ft | 357 kts | 144° |
| 2026-05-03 22:38 | 32.91752 | -65.06249 | 16798 ft | 355 kts | 144° |
| 2026-05-03 22:38 | 32.90090 | -65.04137 | 16410 ft | 353 kts | 144° |
| 2026-05-03 22:39 | 32.88416 | -65.02011 | 15994 ft | 351 kts | 144° |
| 2026-05-03 22:39 | 32.86753 | -64.99900 | 15615 ft | 349 kts | 144° |
| 2026-05-03 22:39 | 32.85090 | -64.97790 | 15208 ft | 347 kts | 144° |
| 2026-05-03 22:39 | 32.83445 | -64.95706 | 14825 ft | 345 kts | 144° |
| 2026-05-03 22:40 | 32.81804 | -64.93630 | 14440 ft | 343 kts | 144° |
| 2026-05-03 22:40 | 32.80167 | -64.91564 | 14062 ft | 342 kts | 144° |
| 2026-05-03 22:40 | 32.78538 | -64.89512 | 13648 ft | 341 kts | 144° |
| 2026-05-03 22:40 | 32.76916 | -64.87464 | 13234 ft | 339 kts | 143° |
| 2026-05-03 22:41 | 32.75310 | -64.85432 | 12858 ft | 336 kts | 143° |
| 2026-05-03 22:41 | 32.73712 | -64.83406 | 12482 ft | 334 kts | 143° |
| 2026-05-03 22:41 | 32.72145 | -64.81423 | 12107 ft | 332 kts | 143° |
| 2026-05-03 22:41 | 32.70541 | -64.79401 | 11720 ft | 331 kts | 143° |
| 2026-05-03 22:42 | 32.68992 | -64.77452 | 11348 ft | 329 kts | 143° |
| 2026-05-03 22:42 | 32.67419 | -64.75473 | 10973 ft | 327 kts | 143° |
| 2026-05-03 22:42 | 32.65858 | -64.73508 | 10592 ft | 326 kts | 143° |
| 2026-05-03 22:42 | 32.64321 | -64.71568 | 10438 ft | 317 kts | 143° |
| 2026-05-03 22:43 | 32.62823 | -64.69676 | 10151 ft | 312 kts | 143° |
| 2026-05-03 22:43 | 32.61350 | -64.67820 | 9568 ft | 309 kts | 143° |
| 2026-05-03 22:43 | 32.59878 | -64.65974 | 9100 ft | 307 kts | 143° |
| 2026-05-03 22:43 | 32.58400 | -64.64130 | 8723 ft | 308 kts | 142° |
| 2026-05-03 22:44 | 32.56925 | -64.62286 | 8360 ft | 308 kts | 142° |
| 2026-05-03 22:44 | 32.55456 | -64.60444 | 7997 ft | 308 kts | 141° |
| 2026-05-03 22:44 | 32.53995 | -64.58607 | 7710 ft | 304 kts | 141° |
| 2026-05-03 22:44 | 32.52539 | -64.56777 | 7353 ft | 304 kts | 141° |
| 2026-05-03 22:45 | 32.51108 | -64.54981 | 6996 ft | 304 kts | 141° |
| 2026-05-03 22:45 | 32.49648 | -64.53151 | 6773 ft | 300 kts | 141° |
| 2026-05-03 22:45 | 32.48235 | -64.51375 | 6405 ft | 302 kts | 140° |
| 2026-05-03 22:45 | 32.46834 | -64.49539 | 6144 ft | 299 kts | 139° |
| 2026-05-03 22:46 | 32.45465 | -64.47701 | 5942 ft | 293 kts | 137° |
| 2026-05-03 22:46 | 32.44156 | -64.45923 | 5807 ft | 277 kts | 137° |
| 2026-05-03 22:46 | 32.42937 | -64.44263 | 5686 ft | 259 kts | 137° |
| 2026-05-03 22:46 | 32.41729 | -64.42851 | 5496 ft | 240 kts | 146° |
| 2026-05-03 22:47 | 32.40434 | -64.41636 | 5083 ft | 231 kts | 161° |
| 2026-05-03 22:47 | 32.38975 | -64.41161 | 4753 ft | 209 kts | 188° |
| 2026-05-03 22:47 | 32.37614 | -64.41423 | 4446 ft | 192 kts | 211° |
| 2026-05-03 22:47 | 32.36504 | -64.42231 | 4192 ft | 185 kts | 231° |
| 2026-05-03 22:48 | 32.35725 | -64.43400 | 3936 ft | 180 kts | 241° |
| 2026-05-03 22:48 | 32.35031 | -64.44614 | 3713 ft | 180 kts | 241° |
| 2026-05-03 22:48 | 32.34321 | -64.45845 | 3439 ft | 182 kts | 241° |
| 2026-05-03 22:48 | 32.33604 | -64.47091 | 3183 ft | 183 kts | 243° |
| 2026-05-03 22:49 | 32.33173 | -64.48427 | 2942 ft | 168 kts | 267° |
| 2026-05-03 22:49 | 32.33270 | -64.49734 | 2729 ft | 151 kts | 283° |
| 2026-05-03 22:49 | 32.33479 | -64.50907 | 2562 ft | 142 kts | 282° |
| 2026-05-03 22:49 | 32.33676 | -64.52043 | 2376 ft | 141 kts | 283° |
| 2026-05-03 22:50 | 32.33866 | -64.53160 | 2199 ft | 138 kts | 283° |
| 2026-05-03 22:50 | 32.34055 | -64.54267 | 2017 ft | 136 kts | 282° |
| 2026-05-03 22:50 | 32.34246 | -64.55370 | 1835 ft | 137 kts | 283° |
| 2026-05-03 22:50 | 32.34435 | -64.56468 | 1661 ft | 136 kts | 283° |
| 2026-05-03 22:51 | 32.34624 | -64.57560 | 1475 ft | 135 kts | 282° |
| 2026-05-03 22:51 | 32.34811 | -64.58642 | 1302 ft | 134 kts | 285° |
| 2026-05-03 22:51 | 32.34999 | -64.59725 | 1117 ft | 135 kts | 285° |
| 2026-05-03 22:51 | 32.35185 | -64.60801 | 947 ft | 135 kts | 285° |
| 2026-05-03 22:52 | 32.35372 | -64.61884 | 787 ft | 133 kts | 285° |
| 2026-05-03 22:52 | 32.35557 | -64.62954 | 625 ft | 133 kts | 285° |
| 2026-05-03 22:52 | 32.35743 | -64.64028 | 478 ft | 133 kts | 281° |
| 2026-05-03 22:52 | 32.35922 | -64.65104 | 266 ft | 133 kts | 281° |
| 2026-05-03 22:53 | 32.36105 | -64.66169 | 67 ft | 132 kts | 282° |
| 2026-05-03 22:53 | 32.36267 | -64.67050 | 8 ft | 107 kts | 282° |
| 2026-05-03 22:53 | 32.36387 | -64.67741 | 3 ft | 57 kts | 281° |
| 2026-05-03 22:53 | 32.36445 | -64.68102 | 6 ft | 35 kts | 281° |
| 2026-05-03 22:54 | 32.36494 | -64.68377 | 7 ft | 35 kts | 282° |
| 2026-05-03 22:54 | 32.36553 | -64.68638 | 8 ft | 21 kts | 314° |
| 2026-05-03 22:54 | 32.36612 | -64.68656 | 5 ft | 0 kts | 352° |
| 2026-05-03 22:54 | 32.36615 | -64.68657 | 5 ft | 3 kts | 352° |
| 2026-05-03 22:55 | 32.36673 | -64.68666 | 5 ft | 14 kts | 352° |
| 2026-05-03 22:55 | 32.36782 | -64.68661 | 5 ft | 12 kts | 337° |
| 2026-05-03 22:55 | 32.36847 | -64.68658 | 5 ft | 9 kts | 12° |
| 2026-05-03 22:55 | 32.36844 | -64.68676 | 5 ft | 3 kts | 222° |
| 2026-05-03 22:56 | 32.36821 | -64.68689 | 5 ft | 0 kts | 193° |
| 2026-05-03 22:56 | 32.36812 | -64.68691 | 6 ft | 2 kts | 195° |
| 2026-05-03 22:56 | 32.36811 | -64.68691 | 6 ft | 0 kts | 195° |
| 2026-05-03 22:58 | 32.36831 | -64.68686 | 4 ft | 0 kts | 193° |